Time;durP1;ratioP1;P1;durP2;ratioP2;P2;SDS_P1;SDS_P2;PMS_P1;PMS_P2;Temp;Humidity;BMP_temperature;BMP_pressure;BME280_temperature;BME280_humidity;BME280_pressure;Samples;Min_cycle;Max_cycle;Signal;HPM_P1;HPM_P2
2023/06/23 00:01:55;;;;;;;;;;;;;;;;;;5031985;28;19925;-69
2023/06/23 00:04:22;;;;;;;;;;;;;;;;;;5031065;28;20394;-69
2023/06/23 00:06:48;;;;;;;;;;;;;;;;;;5031644;28;20008;-69
2023/06/23 00:09:15;;;;;;;;;;;;;;;;;;5030493;28;20024;-69
2023/06/23 00:11:41;;;;;;;;;;;;;;;;;;5031034;28;19929;-69
2023/06/23 00:14:08;;;;;;;;;;;;;;;;;;5031086;28;19932;-69
2023/06/23 00:16:36;;;;;;;;;;;;;;;;;;5031456;28;19925;-69
2023/06/23 00:19:04;;;;;;;;;;;;;;;;;;5031355;28;19929;-69
2023/06/23 00:21:30;;;;;;;;;;;;;;;;;;5030662;28;19932;-69
2023/06/23 00:23:57;;;;;;;;;;;;;;;;;;5030257;28;19925;-69
2023/06/23 00:26:24;;;;;;;;;;;;;;;;;;5031089;28;19925;-69
2023/06/23 00:28:50;;;;;;;;;;;;;;;;;;5031056;28;19925;-69
2023/06/23 00:31:17;;;;;;;;;;;;;;;;;;5030431;28;19925;-69
2023/06/23 00:33:43;;;;;;;;;;;;;;;;;;5031080;28;20007;-69
2023/06/23 00:36:11;;;;;;;;;;;;;;;;;;5030423;28;20314;-69
2023/06/23 00:38:40;;;;;;;;;;;;;;;;;;5030749;28;19976;-69
2023/06/23 00:41:06;;;;;;;;;;;;;;;;;;5030215;28;20020;-69
2023/06/23 00:43:34;;;;;;;;;;;;;;;;;;5030458;28;19925;-69
2023/06/23 00:46:04;;;;;;;;;;;;;;;;;;5030442;28;19925;-69
2023/06/23 00:48:31;;;;;;;;;;;;;;;;;;5030799;28;19975;-69
2023/06/23 00:50:57;;;;;;;;;;;;;;;;;;5030001;28;20008;-69
2023/06/23 00:53:25;;;;;;;;;;;;;;;;;;5030868;28;20291;-69
2023/06/23 00:55:51;;;;;;;;;;;;;;;;;;5030336;28;19929;-69
2023/06/23 00:58:18;;;;;;;;;;;;;;;;;;5030804;28;19932;-69
2023/06/23 01:00:44;;;;;;;;;;;;;;;;;;5030106;28;19964;-69
2023/06/23 01:03:10;;;;;;;;;;;;;;;;;;5030950;28;19925;-69
2023/06/23 01:05:39;;;;;;;;;;;;;;;;;;5030396;28;19979;-69
2023/06/23 01:08:13;;;;;;;;;;;;;;;;;;5030085;28;20008;-69
2023/06/23 01:10:44;;;;;;;;;;;;;;;;;;5029750;28;19972;-69
2023/06/23 01:13:15;;;;;;;;;;;;;;;;;;5030942;28;19925;-69
2023/06/23 01:15:45;;;;;;;;;;;;;;;;;;5030649;28;19980;-69
2023/06/23 01:18:18;;;;;;;;;;;;;;;;;;5030339;28;20309;-69
2023/06/23 01:20:47;;;;;;;;;;;;;;;;;;5030165;28;19951;-69
2023/06/23 01:23:28;;;;;;;;;;;;;;;;;;5029899;28;19925;-69
2023/06/23 01:26:02;;;;;;;;;;;;;;;;;;5030510;28;19925;-68
2023/06/23 01:28:37;;;;;;;;;;;;;;;;;;5029720;28;19925;-68
2023/06/23 01:31:05;;;;;;;;;;;;;;;;;;5030235;28;20283;-68
2023/06/23 01:33:37;;;;;;;;;;;;;;;;;;5029713;28;20031;-68
2023/06/23 01:36:06;;;;;;;;;;;;;;;;;;5029917;28;20378;-67
2023/06/23 01:38:35;;;;;;;;;;;;;;;;;;5029635;28;19963;-67
2023/06/23 01:41:03;;;;;;;;;;;;;;;;;;5030223;28;19930;-68
2023/06/23 01:43:30;;;;;;;;;;;;;;;;;;5029867;28;19926;-68
2023/06/23 01:46:00;;;;;;;;;;;;;;;;;;5030277;28;19925;-68
2023/06/23 01:48:27;;;;;;;;;;;;;;;;;;5030026;28;20108;-68
2023/06/23 01:50:54;;;;;;;;;;;;;;;;;;5030030;28;19932;-68
2023/06/23 01:53:21;;;;;;;;;;;;;;;;;;5030675;28;19947;-68
2023/06/23 01:55:49;;;;;;;;;;;;;;;;;;5034167;28;19929;-68
2023/06/23 01:58:15;;;;;;;;;;;;;;;;;;5033944;28;19925;-68
2023/06/23 02:00:42;;;;;;;;;;;;;;;;;;5033176;28;19932;-68
2023/06/23 02:03:11;;;;;;;;;;;;;;;;;;5033961;28;20405;-68
2023/06/23 02:05:38;;;;;;;;;;;;;;;;;;5033447;28;20387;-68
2023/06/23 02:08:05;;;;;;;;;;;;;;;;;;5033674;28;19925;-68
2023/06/23 02:10:31;;;;;;;;;;;;;;;;;;5033471;28;19925;-68
2023/06/23 02:12:58;;;;;;;;;;;;;;;;;;5034043;28;19925;-68
2023/06/23 02:15:26;;;;;;;;;;;;;;;;;;5033168;28;19931;-68
2023/06/23 02:17:53;;;;;;;;;;;;;;;;;;5033282;28;19925;-68
2023/06/23 02:20:23;;;;;;;;;;;;;;;;;;5032695;28;20016;-68
2023/06/23 02:22:50;;;;;;;;;;;;;;;;;;5033411;28;19933;-68
2023/06/23 02:25:17;;;;;;;;;;;;;;;;;;5032988;28;19925;-68
2023/06/23 02:27:44;;;;;;;;;;;;;;;;;;5033324;28;19925;-68
2023/06/23 02:30:11;;;;;;;;;;;;;;;;;;5031527;28;19932;-68
2023/06/23 02:32:37;;;;;;;;;;;;;;;;;;5032847;28;19925;-67
2023/06/23 02:35:04;;;;;;;;;;;;;;;;;;5033387;28;19925;-68
2023/06/23 02:37:32;;;;;;;;;;;;;;;;;;5032650;28;19978;-68
2023/06/23 02:40:01;;;;;;;;;;;;;;;;;;5032960;28;19925;-68
2023/06/23 02:42:31;;;;;;;;;;;;;;;;;;5032852;28;19925;-68
2023/06/23 02:44:58;;;;;;;;;;;;;;;;;;5032874;28;19932;-68
2023/06/23 02:47:26;;;;;;;;;;;;;;;;;;5032577;28;19925;-68
2023/06/23 02:49:54;;;;;;;;;;;;;;;;;;5032314;28;19929;-68
2023/06/23 02:52:21;;;;;;;;;;;;;;;;;;5032638;28;19932;-68
2023/06/23 02:54:50;;;;;;;;;;;;;;;;;;5033078;28;19925;-68
2023/06/23 02:57:18;;;;;;;;;;;;;;;;;;5032301;28;19925;-68
2023/06/23 02:59:44;;;;;;;;;;;;;;;;;;5032200;28;19940;-68
2023/06/23 03:02:12;;;;;;;;;;;;;;;;;;5032199;28;19931;-68
2023/06/23 03:04:41;;;;;;;;;;;;;;;;;;5032031;28;19925;-68
2023/06/23 03:07:10;;;;;;;;;;;;;;;;;;5032497;28;19964;-68
2023/06/23 03:09:37;;;;;;;;;;;;;;;;;;5032113;28;19925;-68
2023/06/23 03:12:06;;;;;;;;;;;;;;;;;;5033029;28;19929;-68
2023/06/23 03:14:32;;;;;;;;;;;;;;;;;;5032280;28;19925;-68
2023/06/23 03:17:00;;;;;;;;;;;;;;;;;;5032635;28;19935;-68
2023/06/23 03:19:29;;;;;;;;;;;;;;;;;;5031857;28;19925;-67
2023/06/23 03:21:59;;;;;;;;;;;;;;;;;;5032373;28;19925;-68
2023/06/23 03:24:30;;;;;;;;;;;;;;;;;;5032091;28;19926;-68
2023/06/23 03:26:58;;;;;;;;;;;;;;;;;;5032283;28;20362;-68
2023/06/23 03:29:27;;;;;;;;;;;;;;;;;;5031275;28;19929;-68
2023/06/23 03:31:57;;;;;;;;;;;;;;;;;;5043378;23;19925;-68
2023/06/23 03:34:24;;;;;;;;;;;;;;;;;;5031560;28;19925;-67
2023/06/23 03:36:51;;;;;;;;;;;;;;;;;;5031624;28;19929;-67
2023/06/23 03:39:19;;;;;;;;;;;;;;;;;;5031399;28;20298;-67
2023/06/23 03:41:46;;;;;;;;;;;;;;;;;;5031162;28;19925;-67
2023/06/23 03:44:15;;;;;;;;;;;;;;;;;;5031389;28;19925;-67
2023/06/23 03:46:46;;;;;;;;;;;;;;;;;;5031312;28;20004;-67
2023/06/23 03:49:14;;;;;;;;;;;;;;;;;;5031470;28;19967;-67
2023/06/23 03:51:41;;;;;;;;;;;;;;;;;;5030941;28;19936;-67
2023/06/23 03:54:09;;;;;;;;;;;;;;;;;;5031373;28;19925;-67
2023/06/23 03:56:36;;;;;;;;;;;;;;;;;;5031124;28;19931;-67
2023/06/23 03:59:03;;;;;;;;;;;;;;;;;;5031630;28;19935;-67
2023/06/23 04:01:29;;;;;;;;;;;;;;;;;;5030699;28;19925;-67
2023/06/23 04:03:58;;;;;;;;;;;;;;;;;;5031257;28;19947;-67
2023/06/23 04:06:25;;;;;;;;;;;;;;;;;;5030750;28;19925;-67
2023/06/23 04:08:53;;;;;;;;;;;;;;;;;;5030904;28;19932;-68
2023/06/23 04:11:20;;;;;;;;;;;;;;;;;;5030266;28;19931;-67
2023/06/23 04:13:46;;;;;;;;;;;;;;;;;;5031274;28;19931;-67
2023/06/23 04:16:14;;;;;;;;;;;;;;;;;;5030572;28;20408;-67
2023/06/23 04:18:41;;;;;;;;;;;;;;;;;;5031004;28;19929;-67
2023/06/23 04:21:09;;;;;;;;;;;;;;;;;;5030214;28;19925;-67
2023/06/23 04:23:36;;;;;;;;;;;;;;;;;;5030952;28;19929;-67
2023/06/23 04:26:04;;;;;;;;;;;;;;;;;;5031161;28;20412;-67
2023/06/23 04:28:33;;;;;;;;;;;;;;;;;;5030816;28;19935;-67
2023/06/23 04:31:02;;;;;;;;;;;;;;;;;;5030429;28;19980;-67
2023/06/23 04:33:29;;;;;;;;;;;;;;;;;;5030385;28;19932;-67
2023/06/23 04:35:59;;;;;;;;;;;;;;;;;;5030455;28;19931;-67
2023/06/23 04:38:28;;;;;;;;;;;;;;;;;;5030233;28;19932;-67
2023/06/23 04:40:55;;;;;;;;;;;;;;;;;;5030496;28;19925;-68
2023/06/23 04:43:26;;;;;;;;;;;;;;;;;;5030395;28;19925;-67
2023/06/23 04:45:56;;;;;;;;;;;;;;;;;;5030672;28;20634;-67
2023/06/23 04:48:24;;;;;;;;;;;;;;;;;;5029783;28;20008;-69
2023/06/23 04:50:52;;;;;;;;;;;;;;;;;;5030361;28;20020;-67
2023/06/23 04:53:20;;;;;;;;;;;;;;;;;;5030183;28;19925;-68
2023/06/23 04:55:50;;;;;;;;;;;;;;;;;;5030595;28;19925;-67
2023/06/23 04:58:17;;;;;;;;;;;;;;;;;;5029934;28;19925;-67
2023/06/23 05:00:45;;;;;;;;;;;;;;;;;;5029892;28;19925;-67
2023/06/23 05:03:12;;;;;;;;;;;;;;;;;;5029782;28;19933;-67
2023/06/23 05:05:41;;;;;;;;;;;;;;;;;;5030479;28;19931;-67
2023/06/23 05:08:08;;;;;;;;;;;;;;;;;;5030305;28;20302;-67
2023/06/23 05:10:35;;;;;;;;;;;;;;;;;;5029722;28;20387;-67
2023/06/23 05:13:04;;;;;;;;;;;;;;;;;;5030478;28;20321;-67
2023/06/23 05:15:30;;;;;;;;;;;;;;;;;;5030008;28;20315;-67
2023/06/23 05:17:58;;;;;;;;;;;;;;;;;;5030382;28;19925;-67
2023/06/23 05:20:25;;;;;;;;;;;;;;;;;;5029572;28;19925;-67
2023/06/23 05:22:52;;;;;;;;;;;;;;;;;;5030542;28;20133;-67
2023/06/23 05:25:20;;;;;;;;;;;;;;;;;;5030028;28;19932;-67
2023/06/23 05:27:49;;;;;;;;;;;;;;;;;;5030433;28;19947;-67
2023/06/23 05:30:18;;;;;;;;;;;;;;;;;;5033338;28;20469;-67
2023/06/23 05:32:46;;;;;;;;;;;;;;;;;;5034142;28;19931;-67
2023/06/23 05:35:12;;;;;;;;;;;;;;;;;;5033638;28;19929;-67
2023/06/23 05:37:40;;;;;;;;;;;;;;;;;;5033901;28;19932;-67
2023/06/23 05:40:09;;;;;;;;;;;;;;;;;;5028134;28;19935;-67
2023/06/23 05:42:36;;;;;;;;;;;;;;;;;;5031273;28;19925;-68
2023/06/23 05:45:02;;;;;;;;;;;;;;;;;;5033672;28;19974;-68
2023/06/23 05:47:35;;;;;;;;;;;;;;;;;;5033225;28;19933;-68
2023/06/23 05:50:02;;;;;;;;;;;;;;;;;;5025881;28;19929;-68
2023/06/23 05:52:29;;;;;;;;;;;;;;;;;;5032089;28;19932;-68
2023/06/23 05:54:56;;;;;;;;;;;;;;;;;;5031771;28;20279;-68
2023/06/23 05:57:26;;;;;;;;;;;;;;;;;;5025513;28;19936;-68
2023/06/23 05:59:55;;;;;;;;;;;;;;;;;;5029550;28;19929;-68
2023/06/23 06:02:25;;;;;;;;;;;;;;;;;;5033060;28;20420;-68
2023/06/23 06:04:56;;;;;;;;;;;;;;;;;;5032437;28;19929;-68
2023/06/23 06:07:23;;;;;;;;;;;;;;;;;;5031467;28;19929;-68
2023/06/23 06:09:50;;;;;;;;;;;;;;;;;;5032549;28;19925;-68
2023/06/23 06:12:16;;;;;;;;;;;;;;;;;;5033359;28;19932;-68
2023/06/23 06:14:44;;;;;;;;;;;;;;;;;;5032546;28;19924;-68
2023/06/23 06:17:10;;;;;;;;;;;;;;;;;;5033292;28;20367;-68
2023/06/23 06:19:38;;;;;;;;;;;;;;;;;;5030968;28;19931;-68
2023/06/23 06:22:07;;;;;;;;;;;;;;;;;;5031626;28;19926;-68
2023/06/23 06:24:35;;;;;;;;;;;;;;;;;;5032741;28;19931;-68
2023/06/23 06:27:01;;;;;;;;;;;;;;;;;;5026441;28;20074;-68
2023/06/23 06:29:29;;;;;;;;;;;;;;;;;;5031250;28;19925;-68
2023/06/23 06:31:57;;;;;;;;;;;;;;;;;;5032373;28;20371;-68
2023/06/23 06:34:24;;;;;;;;;;;;;;;;;;5030988;28;19925;-68
2023/06/23 06:36:51;;;;;;;;;;;;;;;;;;5032692;28;19929;-68
2023/06/23 06:39:19;;;;;;;;;;;;;;;;;;5028166;28;20024;-68
2023/06/23 06:41:47;;;;;;;;;;;;;;;;;;5026631;28;19925;-69
2023/06/23 06:44:13;;;;;;;;;;;;;;;;;;5030410;28;19931;-68
2023/06/23 06:46:42;;;;;;;;;;;;;;;;;;5026295;28;19933;-68
2023/06/23 06:49:10;;;;;;;;;;;;;;;;;;5030548;28;19925;-68
2023/06/23 06:51:37;;;;;;;;;;;;;;;;;;5027567;28;19925;-68
2023/06/23 06:54:04;;;;;;;;;;;;;;;;;;5025267;28;20335;-68
2023/06/23 06:56:31;;;;;;;;;;;;;;;;;;5032104;28;20086;-68
2023/06/23 06:58:58;;;;;;;;;;;;;;;;;;5030308;28;19925;-68
2023/06/23 07:01:24;;;;;;;;;;;;;;;;;;5031196;28;20028;-67
2023/06/23 07:03:51;;;;;;;;;;;;;;;;;;5030657;28;19931;-67
2023/06/23 07:06:17;;;;;;;;;;;;;;;;;;5029864;28;19924;-67
2023/06/23 07:08:43;;;;;;;;;;;;;;;;;;5031735;28;19931;-68
2023/06/23 07:11:10;;;;;;;;;;;;;;;;;;5018313;28;20298;-68
2023/06/23 07:13:38;;;;;;;;;;;;;;;;;;5025082;28;19925;-67
2023/06/23 07:16:05;;;;;;;;;;;;;;;;;;5030591;28;20329;-67
2023/06/23 07:18:31;;;;;;;;;;;;;;;;;;5030740;28;19933;-67
2023/06/23 07:20:58;;;;;;;;;;;;;;;;;;5028810;28;19925;-67
2023/06/23 07:23:25;;;;;;;;;;;;;;;;;;5025676;28;19931;-67
2023/06/23 07:25:51;;;;;;;;;;;;;;;;;;5027038;28;19925;-67
2023/06/23 07:28:17;;;;;;;;;;;;;;;;;;5030750;28;20302;-67
2023/06/23 07:30:45;;;;;;;;;;;;;;;;;;5024500;28;20452;-67
2023/06/23 07:33:11;;;;;;;;;;;;;;;;;;5026348;28;20373;-67
2023/06/23 07:35:38;;;;;;;;;;;;;;;;;;5031235;28;19931;-67
2023/06/23 07:38:04;;;;;;;;;;;;;;;;;;5030808;28;19925;-67
2023/06/23 07:40:31;;;;;;;;;;;;;;;;;;5030068;28;19940;-67
2023/06/23 07:42:57;;;;;;;;;;;;;;;;;;5030213;28;19925;-67
2023/06/23 07:45:24;;;;;;;;;;;;;;;;;;5030193;28;19925;-67
2023/06/23 07:47:51;;;;;;;;;;;;;;;;;;5029451;28;20438;-67
2023/06/23 07:50:18;;;;;;;;;;;;;;;;;;5030106;28;19937;-67
2023/06/23 07:52:45;;;;;;;;;;;;;;;;;;5027669;28;19987;-68
2023/06/23 07:55:18;;;;;;;;;;;;;;;;;;5029125;28;19999;-68
2023/06/23 07:57:44;;;;;;;;;;;;;;;;;;5026580;28;20106;-67
2023/06/23 08:00:11;;;;;;;;;;;;;;;;;;5030174;28;19925;-67
2023/06/23 08:02:38;;;;;;;;;;;;;;;;;;5029054;28;19978;-67
2023/06/23 08:05:06;;;;;;;;;;;;;;;;;;5029291;28;19925;-67
2023/06/23 08:07:32;;;;;;;;;;;;;;;;;;5030959;28;19929;-67
2023/06/23 08:09:59;;;;;;;;;;;;;;;;;;5021920;28;19926;-67
2023/06/23 08:12:25;;;;;;;;;;;;;;;;;;5029301;28;20016;-66
2023/06/23 08:14:51;;;;;;;;;;;;;;;;;;5030019;28;19972;-67
2023/06/23 08:17:18;;;;;;;;;;;;;;;;;;5029888;28;20096;-67
2023/06/23 08:19:44;;;;;;;;;;;;;;;;;;5030475;28;20016;-67
2023/06/23 08:22:14;;;;;;;;;;;;;;;;;;5027875;28;19925;-67
2023/06/23 08:24:40;;;;;;;;;;;;;;;;;;5024819;28;20211;-67
2023/06/23 08:27:07;;;;;;;;;;;;;;;;;;5027993;28;19925;-67
2023/06/23 08:29:37;;;;;;;;;;;;;;;;;;5029837;28;19933;-67
2023/06/23 08:32:03;;;;;;;;;;;;;;;;;;5023667;28;19933;-67
2023/06/23 08:34:30;;;;;;;;;;;;;;;;;;5027877;28;19947;-67
2023/06/23 08:36:56;;;;;;;;;;;;;;;;;;5030487;28;20117;-67
2023/06/23 08:39:24;;;;;;;;;;;;;;;;;;5026513;28;20416;-67
2023/06/23 08:41:51;;;;;;;;;;;;;;;;;;5026341;28;20438;-67
2023/06/23 08:44:18;;;;;;;;;;;;;;;;;;5030324;28;19932;-68
2023/06/23 08:46:44;;;;;;;;;;;;;;;;;;5030270;28;19940;-68
2023/06/23 08:49:14;;;;;;;;;;;;;;;;;;5030482;28;19926;-68
2023/06/23 08:51:41;;;;;;;;;;;;;;;;;;5029204;28;20386;-68
2023/06/23 08:54:08;;;;;;;;;;;;;;;;;;5028961;28;19957;-68
2023/06/23 08:56:35;;;;;;;;;;;;;;;;;;5029316;28;19995;-70
2023/06/23 08:59:02;;;;;;;;;;;;;;;;;;5030603;28;19925;-69
2023/06/23 09:01:28;;;;;;;;;;;;;;;;;;5029519;28;19926;-68
2023/06/23 09:03:54;;;;;;;;;;;;;;;;;;5029606;28;20016;-69
2023/06/23 09:06:21;;;;;;;;;;;;;;;;;;5030209;28;20020;-68
2023/06/23 09:08:47;;;;;;;;;;;;;;;;;;5030823;28;19925;-69
2023/06/23 09:11:14;;;;;;;;;;;;;;;;;;5027864;28;19932;-69
2023/06/23 09:13:42;;;;;;;;;;;;;;;;;;5029812;28;20370;-69
2023/06/23 09:16:10;;;;;;;;;;;;;;;;;;5030282;28;19925;-69
2023/06/23 09:18:40;;;;;;;;;;;;;;;;;;5030285;28;19936;-69
2023/06/23 09:21:07;;;;;;;;;;;;;;;;;;5030457;28;19932;-68
2023/06/23 09:23:34;;;;;;;;;;;;;;;;;;5029566;28;19925;-69
2023/06/23 09:26:03;;;;;;;;;;;;;;;;;;5030207;28;20338;-68
2023/06/23 09:28:30;;;;;;;;;;;;;;;;;;5029399;28;20318;-69
2023/06/23 09:30:59;;;;;;;;;;;;;;;;;;5029699;28;19980;-70
2023/06/23 09:33:25;;;;;;;;;;;;;;;;;;5040175;22;20461;-68
2023/06/23 09:35:53;;;;;;;;;;;;;;;;;;5030243;28;19925;-66
2023/06/23 09:38:21;;;;;;;;;;;;;;;;;;5030544;28;20041;-68
2023/06/23 09:40:47;;;;;;;;;;;;;;;;;;5029697;28;19932;-68
2023/06/23 09:43:14;;;;;;;;;;;;;;;;;;5029454;28;19931;-69
2023/06/23 09:45:41;;;;;;;;;;;;;;;;;;5030196;28;20402;-68
2023/06/23 09:48:16;;;;;;;;;;;;;;;;;;5030782;28;19925;-68
2023/06/23 09:50:42;;;;;;;;;;;;;;;;;;5029508;28;19925;-69
2023/06/23 09:53:09;;;;;;;;;;;;;;;;;;5030831;28;19932;-66
2023/06/23 09:55:35;;;;;;;;;;;;;;;;;;5030078;28;19925;-68
2023/06/23 09:58:03;;;;;;;;;;;;;;;;;;5029021;28;19933;-66
2023/06/23 10:00:30;;;;;;;;;;;;;;;;;;5011751;28;19933;-68
2023/06/23 10:02:57;;;;;;;;;;;;;;;;;;5024171;28;19925;-66
2023/06/23 10:05:25;;;;;;;;;;;;;;;;;;5030057;28;20429;-68
2023/06/23 10:08:05;;;;;;;;;;;;;;;;;;5030303;28;20025;-68
2023/06/23 10:10:32;;;;;;;;;;;;;;;;;;5029914;28;20433;-68
2023/06/23 10:12:58;;;;;;;;;;;;;;;;;;5030182;28;20023;-68
2023/06/23 10:15:25;;;;;;;;;;;;;;;;;;5032353;28;19931;-68
2023/06/23 10:17:51;;;;;;;;;;;;;;;;;;5033533;28;19933;-68
2023/06/23 10:20:18;;;;;;;;;;;;;;;;;;5033262;28;20390;-68
2023/06/23 10:22:46;;;;;;;;;;;;;;;;;;5033577;28;19925;-68
2023/06/23 10:25:12;;;;;;;;;;;;;;;;;;5033714;28;19925;-67
2023/06/23 10:27:41;;;;;;;;;;;;;;;;;;5031397;28;19925;-68
2023/06/23 10:30:10;;;;;;;;;;;;;;;;;;5017095;28;19925;-68
2023/06/23 10:32:37;;;;;;;;;;;;;;;;;;5032328;28;19925;-68
2023/06/23 10:35:04;;;;;;;;;;;;;;;;;;5033273;28;19951;-68
2023/06/23 10:37:31;;;;;;;;;;;;;;;;;;5032792;28;19925;-68
2023/06/23 10:40:01;;;;;;;;;;;;;;;;;;5033106;28;19948;-68
2023/06/23 10:42:29;;;;;;;;;;;;;;;;;;5032698;28;19980;-68
2023/06/23 10:44:56;;;;;;;;;;;;;;;;;;5033412;28;19936;-68
2023/06/23 10:47:22;;;;;;;;;;;;;;;;;;5031317;28;19925;-68
2023/06/23 10:49:49;;;;;;;;;;;;;;;;;;5032391;28;20008;-68
2023/06/23 10:52:16;;;;;;;;;;;;;;;;;;5032909;28;19925;-68
2023/06/23 10:54:43;;;;;;;;;;;;;;;;;;5032762;28;19925;-68
2023/06/23 10:57:11;;;;;;;;;;;;;;;;;;5032797;28;19925;-68
2023/06/23 10:59:41;;;;;;;;;;;;;;;;;;5032157;28;19987;-68
2023/06/23 11:02:08;;;;;;;;;;;;;;;;;;5030090;28;20275;-68
2023/06/23 11:04:36;;;;;;;;;;;;;;;;;;5031455;28;20014;-68
2023/06/23 11:07:03;;;;;;;;;;;;;;;;;;5030541;28;20016;-68
2023/06/23 11:09:45;;;;;;;;;;;;;;;;;;5026450;28;19932;-67
2023/06/23 11:12:30;;;;;;;;;;;;;;;;;;5027322;28;19932;-68
2023/06/23 11:15:02;;;;;;;;;;;;;;;;;;5028323;28;19929;-65
2023/06/23 11:17:29;;;;;;;;;;;;;;;;;;5029220;28;19932;-67
2023/06/23 11:19:55;;;;;;;;;;;;;;;;;;5028502;28;19925;-67
2023/06/23 11:22:22;;;;;;;;;;;;;;;;;;5029307;28;19936;-68
2023/06/23 11:24:52;;;;;;;;;;;;;;;;;;5029506;28;19925;-67
2023/06/23 11:27:19;;;;;;;;;;;;;;;;;;5029929;28;19925;-67
2023/06/23 11:30:14;;;;;;;;;;;;;;;;;;5027884;28;19955;-67
2023/06/23 11:32:42;;;;;;;;;;;;;;;;;;5013370;28;19936;-67
2023/06/23 11:35:09;;;;;;;;;;;;;;;;;;5032372;28;19925;-67
2023/06/23 11:37:37;;;;;;;;;;;;;;;;;;5031061;28;19925;-67
2023/06/23 11:40:08;;;;;;;;;;;;;;;;;;5031301;28;20404;-67
2023/06/23 11:42:35;;;;;;;;;;;;;;;;;;5031524;28;19990;-67
2023/06/23 11:45:01;;;;;;;;;;;;;;;;;;5032131;28;19954;-68
2023/06/23 11:47:28;;;;;;;;;;;;;;;;;;5029804;28;19929;-66
2023/06/23 11:49:56;;;;;;;;;;;;;;;;;;5032426;28;19983;-67
2023/06/23 11:52:23;;;;;;;;;;;;;;;;;;5033267;28;19925;-67
2023/06/23 11:54:51;;;;;;;;;;;;;;;;;;5032714;28;19972;-67
2023/06/23 11:57:18;;;;;;;;;;;;;;;;;;5032705;28;20374;-67
2023/06/23 11:59:44;;;;;;;;;;;;;;;;;;5030715;28;19925;-67
2023/06/23 12:02:10;;;;;;;;;;;;;;;;;;5032298;28;20051;-67
2023/06/23 12:04:38;;;;;;;;;;;;;;;;;;5031581;28;20442;-67
2023/06/23 12:07:06;;;;;;;;;;;;;;;;;;5031703;28;19925;-67
2023/06/23 12:09:33;;;;;;;;;;;;;;;;;;5030972;28;20402;-67
2023/06/23 12:11:59;;;;;;;;;;;;;;;;;;5031525;28;19925;-67
2023/06/23 12:14:29;;;;;;;;;;;;;;;;;;5030827;28;20024;-68
2023/06/23 12:17:09;;;;;;;;;;;;;;;;;;5028946;28;19925;-67
2023/06/23 12:19:36;;;;;;;;;;;;;;;;;;5030750;28;19925;-66
2023/06/23 12:22:03;;;;;;;;;;;;;;;;;;5031361;28;20023;-68
2023/06/23 12:24:31;;;;;;;;;;;;;;;;;;5031471;28;20300;-66
2023/06/23 12:26:58;;;;;;;;;;;;;;;;;;5030404;28;19932;-66
2023/06/23 12:29:30;;;;;;;;;;;;;;;;;;5031083;28;19931;-66
2023/06/23 12:31:57;;;;;;;;;;;;;;;;;;5030448;28;19925;-67
2023/06/23 12:34:30;;;;;;;;;;;;;;;;;;5031039;28;19931;-67
2023/06/23 12:37:01;;;;;;;;;;;;;;;;;;5029994;28;20283;-67
2023/06/23 12:39:30;;;;;;;;;;;;;;;;;;5029832;28;20008;-66
2023/06/23 12:41:57;;;;;;;;;;;;;;;;;;5030871;28;20016;-67
2023/06/23 12:44:25;;;;;;;;;;;;;;;;;;5031215;28;19926;-67
2023/06/23 12:46:53;;;;;;;;;;;;;;;;;;5029955;28;19929;-67
2023/06/23 12:49:21;;;;;;;;;;;;;;;;;;5026889;28;20401;-67
2023/06/23 12:51:48;;;;;;;;;;;;;;;;;;5029865;28;20303;-67
2023/06/23 12:54:14;;;;;;;;;;;;;;;;;;5030538;28;19955;-67
2023/06/23 12:56:42;;;;;;;;;;;;;;;;;;5030781;28;20007;-67
2023/06/23 12:59:08;;;;;;;;;;;;;;;;;;5030018;28;19931;-67
2023/06/23 13:01:36;;;;;;;;;;;;;;;;;;5030184;28;19931;-67
2023/06/23 13:04:03;;;;;;;;;;;;;;;;;;5030208;28;19938;-67
2023/06/23 13:06:29;;;;;;;;;;;;;;;;;;5030581;28;19925;-67
2023/06/23 13:08:55;;;;;;;;;;;;;;;;;;5016278;28;20398;-67
2023/06/23 13:11:23;;;;;;;;;;;;;;;;;;5010700;28;20445;-67
2023/06/23 13:13:52;;;;;;;;;;;;;;;;;;5010450;28;20024;-67
2023/06/23 13:16:18;;;;;;;;;;;;;;;;;;5010513;28;19925;-67
2023/06/23 13:18:45;;;;;;;;;;;;;;;;;;5018685;28;19932;-67
2023/06/23 13:21:11;;;;;;;;;;;;;;;;;;5029463;28;19925;-67
2023/06/23 13:23:37;;;;;;;;;;;;;;;;;;5030702;28;19925;-67
2023/06/23 13:26:04;;;;;;;;;;;;;;;;;;5030088;28;19932;-67
2023/06/23 13:28:31;;;;;;;;;;;;;;;;;;5030676;28;20285;-67
2023/06/23 13:30:58;;;;;;;;;;;;;;;;;;5029376;28;20012;-67
2023/06/23 13:33:25;;;;;;;;;;;;;;;;;;5030343;28;19925;-67
2023/06/23 13:35:51;;;;;;;;;;;;;;;;;;5030118;28;19925;-67
2023/06/23 13:38:18;;;;;;;;;;;;;;;;;;5030060;28;20122;-67
2023/06/23 13:40:44;;;;;;;;;;;;;;;;;;5029821;28;20390;-67
2023/06/23 13:43:10;;;;;;;;;;;;;;;;;;5030048;28;20540;-67
2023/06/23 13:45:37;;;;;;;;;;;;;;;;;;5030161;28;20026;-67
2023/06/23 13:48:05;;;;;;;;;;;;;;;;;;5029382;28;19935;-67
2023/06/23 13:50:31;;;;;;;;;;;;;;;;;;5032867;28;19925;-68
2023/06/23 13:52:58;;;;;;;;;;;;;;;;;;5033478;28;19965;-67
2023/06/23 13:55:25;;;;;;;;;;;;;;;;;;5034241;28;19932;-68
2023/06/23 13:57:52;;;;;;;;;;;;;;;;;;5033465;28;19979;-67
2023/06/23 14:00:19;;;;;;;;;;;;;;;;;;5033892;28;20009;-67
2023/06/23 14:02:45;;;;;;;;;;;;;;;;;;5033446;28;19935;-67
2023/06/23 14:05:14;;;;;;;;;;;;;;;;;;5034147;28;20411;-67
2023/06/23 14:07:40;;;;;;;;;;;;;;;;;;5033938;28;20017;-67
2023/06/23 14:10:07;;;;;;;;;;;;;;;;;;5033266;28;19925;-67
2023/06/23 14:12:34;;;;;;;;;;;;;;;;;;5034261;28;19929;-68
2023/06/23 14:15:00;;;;;;;;;;;;;;;;;;5033320;28;19925;-68
2023/06/23 14:17:27;;;;;;;;;;;;;;;;;;5033734;28;19929;-68
2023/06/23 14:19:53;;;;;;;;;;;;;;;;;;5032982;28;19936;-68
2023/06/23 14:22:21;;;;;;;;;;;;;;;;;;5033911;28;20381;-68
2023/06/23 14:24:48;;;;;;;;;;;;;;;;;;5033422;28;20344;-68
2023/06/23 14:27:14;;;;;;;;;;;;;;;;;;5033480;28;19925;-68
2023/06/23 14:29:40;;;;;;;;;;;;;;;;;;5021002;28;19948;-68
2023/06/23 14:32:07;;;;;;;;;;;;;;;;;;5013707;28;20024;-68
2023/06/23 14:34:33;;;;;;;;;;;;;;;;;;5013599;28;20020;-68
2023/06/23 14:37:00;;;;;;;;;;;;;;;;;;5013150;28;19925;-68
2023/06/23 14:39:27;;;;;;;;;;;;;;;;;;5013614;28;20012;-68
2023/06/23 14:41:54;;;;;;;;;;;;;;;;;;5012845;28;19959;-68
2023/06/23 14:44:21;;;;;;;;;;;;;;;;;;5012966;28;20315;-68
2023/06/23 14:46:47;;;;;;;;;;;;;;;;;;5013021;28;19951;-68
2023/06/23 14:49:14;;;;;;;;;;;;;;;;;;5013311;28;19926;-68
2023/06/23 14:51:40;;;;;;;;;;;;;;;;;;5012597;28;20388;-68
2023/06/23 14:54:07;;;;;;;;;;;;;;;;;;5013554;28;20300;-68
2023/06/23 14:56:34;;;;;;;;;;;;;;;;;;5012812;28;19925;-68
2023/06/23 14:59:01;;;;;;;;;;;;;;;;;;5012976;28;19932;-67
2023/06/23 15:01:27;;;;;;;;;;;;;;;;;;5011335;28;20012;-68
2023/06/23 15:03:54;;;;;;;;;;;;;;;;;;5013255;28;20571;-68
2023/06/23 15:06:20;;;;;;;;;;;;;;;;;;5012998;28;19930;-67
2023/06/23 15:08:47;;;;;;;;;;;;;;;;;;5012576;28;19925;-67
2023/06/23 15:11:13;;;;;;;;;;;;;;;;;;5012248;28;19936;-67
2023/06/23 15:13:41;;;;;;;;;;;;;;;;;;5012535;28;19929;-67
2023/06/23 15:16:07;;;;;;;;;;;;;;;;;;5012884;28;20398;-67
2023/06/23 15:18:34;;;;;;;;;;;;;;;;;;5012569;28;20020;-68
2023/06/23 15:21:00;;;;;;;;;;;;;;;;;;5012581;28;20005;-68
2023/06/23 15:23:26;;;;;;;;;;;;;;;;;;5012779;28;20493;-68
2023/06/23 15:25:53;;;;;;;;;;;;;;;;;;5012489;28;19944;-68
2023/06/23 15:28:27;;;;;;;;;;;;;;;;;;5012036;28;19925;-66
2023/06/23 15:30:55;;;;;;;;;;;;;;;;;;5012323;28;19936;-67
2023/06/23 15:33:22;;;;;;;;;;;;;;;;;;5056775;23;19994;-68
2023/06/23 15:35:48;;;;;;;;;;;;;;;;;;5051788;28;19924;-67
2023/06/23 15:38:15;;;;;;;;;;;;;;;;;;5051663;28;19947;-67
2023/06/23 15:40:43;;;;;;;;;;;;;;;;;;5050899;28;20313;-67
2023/06/23 15:43:09;;;;;;;;;;;;;;;;;;5051878;28;20298;-67
2023/06/23 15:45:39;;;;;;;;;;;;;;;;;;5051232;28;19931;-67
2023/06/23 15:48:08;;;;;;;;;;;;;;;;;;5051541;28;19924;-67
2023/06/23 15:50:35;;;;;;;;;;;;;;;;;;5050485;28;19924;-68
2023/06/23 15:53:02;;;;;;;;;;;;;;;;;;5051150;28;19924;-67
2023/06/23 15:55:28;;;;;;;;;;;;;;;;;;5050978;28;19925;-67
2023/06/23 15:57:54;;;;;;;;;;;;;;;;;;5051135;28;19931;-67
2023/06/23 16:00:22;;;;;;;;;;;;;;;;;;5050578;28;19959;-67
2023/06/23 16:02:49;;;;;;;;;;;;;;;;;;5051134;28;19925;-67
2023/06/23 16:05:16;;;;;;;;;;;;;;;;;;5050763;28;20391;-68
2023/06/23 16:07:43;;;;;;;;;;;;;;;;;;5050957;28;19925;-67
2023/06/23 16:10:10;;;;;;;;;;;;;;;;;;5050670;28;19925;-68
2023/06/23 16:12:36;;;;;;;;;;;;;;;;;;5051108;28;19924;-67
2023/06/23 16:15:03;;;;;;;;;;;;;;;;;;5051023;28;19928;-67
2023/06/23 16:17:30;;;;;;;;;;;;;;;;;;5050610;28;19924;-68
2023/06/23 16:19:56;;;;;;;;;;;;;;;;;;5050720;28;19928;-67
2023/06/23 16:22:24;;;;;;;;;;;;;;;;;;5050357;28;19931;-67
2023/06/23 16:24:51;;;;;;;;;;;;;;;;;;5051256;28;19933;-67
2023/06/23 16:27:17;;;;;;;;;;;;;;;;;;5050699;28;19960;-67
2023/06/23 16:29:43;;;;;;;;;;;;;;;;;;5050347;28;19925;-68
2023/06/23 16:32:10;;;;;;;;;;;;;;;;;;5050354;28;20371;-68
2023/06/23 16:34:36;;;;;;;;;;;;;;;;;;5050618;28;20020;-68
2023/06/23 16:37:03;;;;;;;;;;;;;;;;;;5050216;28;20028;-67
2023/06/23 16:39:30;;;;;;;;;;;;;;;;;;5050446;28;19925;-68
2023/06/23 16:41:58;;;;;;;;;;;;;;;;;;5050660;28;19925;-67
2023/06/23 16:44:25;;;;;;;;;;;;;;;;;;5050590;28;19932;-68
2023/06/23 16:46:52;;;;;;;;;;;;;;;;;;5050721;28;20271;-68
2023/06/23 16:49:18;;;;;;;;;;;;;;;;;;5049872;28;20028;-68